Sherwood Valley Rancheria, California
Current Conditions -  °F | °C
As of 2:56 PM on Saturday 20 Dec 2014 (Local Time) from KUKI Reporting Station
Light Rain Light Rain  
Wind Chill: 54°   Ceiling: 2500
Heat Index: 54°   Visibility: 2.5mi
Dew Point: 52°   Wind: 6mph
Humidity: 93%   Direction: 150°SSE
Pressure: 30.15"   Gusts: NA
Location:  39.4588°N, 123.715°W
Report Text: KUKI 202256Z AUTO 15005KT 2 1/2SM -RA BR BKN025 OVC031 12/11 A3015 RMK AO2 SLP205 P0005 T01220111
Loading
Personal Weather Stations






























Interactive Weather Map New forecast layout! Learn more

10-Day Weather Forecast

Advertisements
Track Severe Weather on mobile